This is the latest recevied weather packets stored in our database for station/object SP2ARQ-13. If no packets are shown the sender has not sent any weather packets the latest 10 day(s).
| Time | Temp. | Humidity | Pressure | Rain* | Wind** | Luminosity | Snow |
|---|---|---|---|---|---|---|---|
| 1777137147 | 15° C | 45% | 1005.8 hPa | - | - | - | - |
| 1777136247 | 15° C | 45% | 1005.7 hPa | - | - | - | - |
| 1777135347 | 15.56° C | 44% | 1005.9 hPa | - | - | - | - |
| 1777134447 | 16.11° C | 43% | 1006.1 hPa | - | - | - | - |
| 1777133546 | 16.67° C | 43% | 1006 hPa | - | - | - | - |
| 1777132646 | 16.67° C | 42% | 1005.9 hPa | - | - | - | - |
| 1777131746 | 18.33° C | 42% | 1006.4 hPa | - | - | - | - |
| 1777130846 | 18.89° C | 41% | 1006.5 hPa | - | - | - | - |
| 1777130253 | 18.33° C | 42% | 1006.6 hPa | - | - | - | - |
| 1777129890 | 18.89° C | 40% | 1006.7 hPa | - | - | - | - |
| 1777128145 | 18.89° C | 41% | 1006.9 hPa | - | - | - | - |
| 1777127245 | 18.89° C | 40% | 1006.9 hPa | - | - | - | - |
| 1777126345 | 17.78° C | 42% | 1007.1 hPa | - | - | - | - |
| 1777125444 | 18.33° C | 41% | 1006.8 hPa | - | - | - | - |
| 1777124544 | 18.89° C | 42% | 1007 hPa | - | - | - | - |
| 1777123644 | 18.33° C | 42% | 1007.1 hPa | - | - | - | - |
| 1777122744 | 17.78° C | 43% | 1007.2 hPa | - | - | - | - |
| 1777121844 | 19.44° C | 42% | 1007.3 hPa | - | - | - | - |
| 1777120943 | 18.89° C | 42% | 1007.7 hPa | - | - | - | - |
| 1777120043 | 18.33° C | 43% | 1007.7 hPa | - | - | - | - |
| 1777119143 | 18.33° C | 45% | 1007.8 hPa | - | - | - | - |
| 1777118243 | 16.67° C | 51% | 1007.6 hPa | - | - | - | - |
| 1777117343 | 16.11° C | 52% | 1007.8 hPa | - | - | - | - |
| 1777116443 | 16.11° C | 53% | 1007.8 hPa | - | - | - | - |
| 1777115542 | 15° C | 55% | 1007.9 hPa | - | - | - | - |
* Rain since midnight (hover to see other rain measurements)
** Current wind speed in m/s (hover to see current wind gust speed)